sensor_id;sensor_type;location;lat;lon;timestamp;pressure;altitude;pressure_sealevel;temperature;humidity
74678;BME280;63207;56.328;43.994;2022-11-24T00:00:28;100363.09;;;19.25;42.21
74678;BME280;63207;56.328;43.994;2022-11-24T00:02:54;100361.28;;;19.25;42.11
74678;BME280;63207;56.328;43.994;2022-11-24T00:05:20;100358.84;;;19.24;42.23
74678;BME280;63207;56.328;43.994;2022-11-24T00:07:47;100363.25;;;19.23;42.32
74678;BME280;63207;56.328;43.994;2022-11-24T00:10:13;100365.72;;;19.25;42.25
74678;BME280;63207;56.328;43.994;2022-11-24T00:12:39;100375.25;;;19.26;42.25
74678;BME280;63207;56.328;43.994;2022-11-24T00:15:05;100379.66;;;19.25;42.26
74678;BME280;63207;56.328;43.994;2022-11-24T00:17:32;100371.78;;;19.25;42.17
74678;BME280;63207;56.328;43.994;2022-11-24T00:19:57;100373.59;;;19.25;42.22
74678;BME280;63207;56.328;43.994;2022-11-24T00:22:23;100372.63;;;19.26;42.23
74678;BME280;63207;56.328;43.994;2022-11-24T00:24:49;100382.28;;;19.25;42.16
74678;BME280;63207;56.328;43.994;2022-11-24T00:27:15;100386.56;;;19.26;42.38
74678;BME280;63207;56.328;43.994;2022-11-24T00:29:42;100382.28;;;19.25;42.08
74678;BME280;63207;56.328;43.994;2022-11-24T00:32:08;100387.53;;;19.25;42.07
74678;BME280;63207;56.328;43.994;2022-11-24T00:34:33;100391.00;;;19.26;42.10
74678;BME280;63207;56.328;43.994;2022-11-24T00:37:00;100396.25;;;19.26;42.17
74678;BME280;63207;56.328;43.994;2022-11-24T00:39:25;100388.50;;;19.24;42.20
74678;BME280;63207;56.328;43.994;2022-11-24T00:41:51;100388.50;;;19.24;42.19
74678;BME280;63207;56.328;43.994;2022-11-24T00:44:17;100391.81;;;19.26;42.06
74678;BME280;63207;56.328;43.994;2022-11-24T00:46:43;100387.53;;;19.25;42.15
74678;BME280;63207;56.328;43.994;2022-11-24T00:49:09;100398.00;;;19.25;42.15
74678;BME280;63207;56.328;43.994;2022-11-24T00:51:35;100404.94;;;19.26;42.17
74678;BME280;63207;56.328;43.994;2022-11-24T00:54:20;100411.97;;;19.26;42.11
74678;BME280;63207;56.328;43.994;2022-11-24T00:56:46;100412.09;;;19.24;42.34
74678;BME280;63207;56.328;43.994;2022-11-24T00:59:12;100418.84;;;19.27;42.21
74678;BME280;63207;56.328;43.994;2022-11-24T01:01:38;100422.47;;;19.26;42.23
74678;BME280;63207;56.328;43.994;2022-11-24T01:04:04;100420.66;;;19.26;42.30
74678;BME280;63207;56.328;43.994;2022-11-24T01:06:30;100425.09;;;19.26;42.20
74678;BME280;63207;56.328;43.994;2022-11-24T01:08:57;100431.16;;;19.26;42.19
74678;BME280;63207;56.328;43.994;2022-11-24T01:11:25;100440.66;;;19.27;42.10
74678;BME280;63207;56.328;43.994;2022-11-24T01:13:56;100442.59;;;19.25;42.11
74678;BME280;63207;56.328;43.994;2022-11-24T01:16:31;100439.03;;;19.26;42.09
74678;BME280;63207;56.328;43.994;2022-11-24T01:18:58;100445.22;;;19.25;42.05
74678;BME280;63207;56.328;43.994;2022-11-24T01:21:24;100446.06;;;19.26;42.04
74678;BME280;63207;56.328;43.994;2022-11-24T01:23:50;100442.47;;;19.27;42.14
74678;BME280;63207;56.328;43.994;2022-11-24T01:26:18;100448.53;;;19.27;41.98
74678;BME280;63207;56.328;43.994;2022-11-24T01:29:03;100446.88;;;19.26;42.13
74678;BME280;63207;56.328;43.994;2022-11-24T01:31:30;100460.69;;;19.28;42.19
74678;BME280;63207;56.328;43.994;2022-11-24T01:33:57;100452.13;;;19.26;42.11
74678;BME280;63207;56.328;43.994;2022-11-24T01:36:23;100452.94;;;19.27;42.13
74678;BME280;63207;56.328;43.994;2022-11-24T01:38:50;100448.53;;;19.27;42.15
74678;BME280;63207;56.328;43.994;2022-11-24T01:41:19;100453.94;;;19.26;42.10
74678;BME280;63207;56.328;43.994;2022-11-24T01:43:46;100457.38;;;19.26;42.21
74678;BME280;63207;56.328;43.994;2022-11-24T01:49:23;100463.56;;;19.25;42.07
74678;BME280;63207;56.328;43.994;2022-11-24T01:51:56;100469.66;;;19.26;42.08
74678;BME280;63207;56.328;43.994;2022-11-24T01:54:29;100461.94;;;19.24;42.11
74678;BME280;63207;56.328;43.994;2022-11-24T01:57:00;100469.66;;;19.26;42.08
74678;BME280;63207;56.328;43.994;2022-11-24T01:59:29;100457.50;;;19.25;42.11
74678;BME280;63207;56.328;43.994;2022-11-24T02:01:56;100460.94;;;19.25;42.04
74678;BME280;63207;56.328;43.994;2022-11-24T02:04:25;100467.03;;;19.26;42.03
74678;BME280;63207;56.328;43.994;2022-11-24T02:07:12;100470.63;;;19.25;41.91
74678;BME280;63207;56.328;43.994;2022-11-24T02:09:51;100473.94;;;19.27;42.05
74678;BME280;63207;56.328;43.994;2022-11-24T02:12:21;100468.69;;;19.27;42.08
74678;BME280;63207;56.328;43.994;2022-11-24T02:15:08;100462.63;;;19.26;42.11
74678;BME280;63207;56.328;43.994;2022-11-24T02:17:34;100464.25;;;19.27;42.09
74678;BME280;63207;56.328;43.994;2022-11-24T02:20:03;100469.66;;;19.26;42.02
74678;BME280;63207;56.328;43.994;2022-11-24T02:27:53;100467.88;;;19.26;42.04
74678;BME280;63207;56.328;43.994;2022-11-24T02:30:21;100466.06;;;19.27;42.01
74678;BME280;63207;56.328;43.994;2022-11-24T02:32:47;100474.06;;;19.25;42.08
74678;BME280;63207;56.328;43.994;2022-11-24T02:35:14;100472.13;;;19.27;42.02
74678;BME280;63207;56.328;43.994;2022-11-24T02:37:40;100477.38;;;19.27;42.09
74678;BME280;63207;56.328;43.994;2022-11-24T02:40:07;100480.97;;;19.26;41.99
74678;BME280;63207;56.328;43.994;2022-11-24T02:43:04;100495.72;;;19.27;42.05
74678;BME280;63207;56.328;43.994;2022-11-24T02:45:32;100494.78;;;19.28;42.01
74678;BME280;63207;56.328;43.994;2022-11-24T02:47:58;100490.50;;;19.27;42.14
74678;BME280;63207;56.328;43.994;2022-11-24T02:50:24;100495.72;;;19.27;42.00
74678;BME280;63207;56.328;43.994;2022-11-24T02:52:50;100495.72;;;19.27;42.06
74678;BME280;63207;56.328;43.994;2022-11-24T02:55:16;100503.59;;;19.27;41.98
74678;BME280;63207;56.328;43.994;2022-11-24T02:57:42;100504.44;;;19.28;42.08
74678;BME280;63207;56.328;43.994;2022-11-24T03:00:09;100511.47;;;19.27;42.02
74678;BME280;63207;56.328;43.994;2022-11-24T03:02:35;100502.66;;;19.28;41.91
74678;BME280;63207;56.328;43.994;2022-11-24T03:05:01;100507.06;;;19.28;42.22
74678;BME280;63207;56.328;43.994;2022-11-24T03:07:29;100512.31;;;19.28;42.05
74678;BME280;63207;56.328;43.994;2022-11-24T03:09:55;100515.75;;;19.28;41.96
74678;BME280;63207;56.328;43.994;2022-11-24T03:12:21;100518.38;;;19.28;42.07
74678;BME280;63207;56.328;43.994;2022-11-24T03:14:47;100520.03;;;19.29;42.11
74678;BME280;63207;56.328;43.994;2022-11-24T03:17:13;100519.22;;;19.29;41.90
74678;BME280;63207;56.328;43.994;2022-11-24T03:19:39;100520.03;;;19.29;42.00
74678;BME280;63207;56.328;43.994;2022-11-24T03:22:05;100513.97;;;19.29;41.99
74678;BME280;63207;56.328;43.994;2022-11-24T03:24:31;100523.47;;;19.30;42.06
74678;BME280;63207;56.328;43.994;2022-11-24T03:26:57;100527.06;;;19.29;42.06
74678;BME280;63207;56.328;43.994;2022-11-24T03:29:23;100529.69;;;19.29;42.02
74678;BME280;63207;56.328;43.994;2022-11-24T03:31:49;100535.75;;;19.29;41.81
74678;BME280;63207;56.328;43.994;2022-11-24T03:34:15;100533.16;;;19.29;41.91
74678;BME280;63207;56.328;43.994;2022-11-24T03:36:41;100537.44;;;19.30;42.07
74678;BME280;63207;56.328;43.994;2022-11-24T03:39:07;100540.06;;;19.30;41.80
74678;BME280;63207;56.328;43.994;2022-11-24T03:41:33;100539.22;;;19.30;42.02
74678;BME280;63207;56.328;43.994;2022-11-24T03:43:59;100531.34;;;19.30;41.75
74678;BME280;63207;56.328;43.994;2022-11-24T03:46:25;100545.31;;;19.30;42.07
74678;BME280;63207;56.328;43.994;2022-11-24T03:48:51;100542.00;;;19.28;42.14
74678;BME280;63207;56.328;43.994;2022-11-24T03:51:17;100545.44;;;19.29;41.78
74678;BME280;63207;56.328;43.994;2022-11-24T03:53:43;100543.50;;;19.31;41.89
74678;BME280;63207;56.328;43.994;2022-11-24T03:56:09;100540.06;;;19.30;41.99
74678;BME280;63207;56.328;43.994;2022-11-24T03:58:35;100538.25;;;19.31;41.96
74678;BME280;63207;56.328;43.994;2022-11-24T04:01:01;100543.63;;;19.29;41.90
74678;BME280;63207;56.328;43.994;2022-11-24T04:03:28;100543.50;;;19.31;41.93
74678;BME280;63207;56.328;43.994;2022-11-24T04:05:54;100547.06;;;19.30;41.93
74678;BME280;63207;56.328;43.994;2022-11-24T04:08:20;100546.25;;;19.29;42.01
74678;BME280;63207;56.328;43.994;2022-11-24T04:10:51;100551.50;;;19.29;41.85
74678;BME280;63207;56.328;43.994;2022-11-24T04:13:20;100551.38;;;19.31;41.95
74678;BME280;63207;56.328;43.994;2022-11-24T04:15:46;100554.13;;;19.29;41.92
74678;BME280;63207;56.328;43.994;2022-11-24T04:18:13;100558.41;;;19.30;41.90
74678;BME280;63207;56.328;43.994;2022-11-24T04:20:40;100567.13;;;19.31;41.89
74678;BME280;63207;56.328;43.994;2022-11-24T04:23:06;100562.81;;;19.30;41.98
74678;BME280;63207;56.328;43.994;2022-11-24T04:25:32;100562.81;;;19.30;42.02
74678;BME280;63207;56.328;43.994;2022-11-24T04:27:58;100565.44;;;19.30;41.94
74678;BME280;63207;56.328;43.994;2022-11-24T04:30:25;100574.16;;;19.30;41.89
74678;BME280;63207;56.328;43.994;2022-11-24T04:33:10;100575.25;;;19.28;41.93
74678;BME280;63207;56.328;43.994;2022-11-24T04:35:54;100574.16;;;19.30;41.89
74678;BME280;63207;56.328;43.994;2022-11-24T04:38:20;100577.72;;;19.29;42.03
74678;BME280;63207;56.328;43.994;2022-11-24T04:40:46;100580.34;;;19.29;41.92
74678;BME280;63207;56.328;43.994;2022-11-24T04:43:12;100583.78;;;19.30;41.84
74678;BME280;63207;56.328;43.994;2022-11-24T04:45:37;100585.59;;;19.29;42.01
74678;BME280;63207;56.328;43.994;2022-11-24T04:48:04;100584.78;;;19.29;41.98
74678;BME280;63207;56.328;43.994;2022-11-24T04:50:30;100586.28;;;19.31;42.90
74678;BME280;63207;56.328;43.994;2022-11-24T04:52:56;100597.19;;;19.36;42.62
74678;BME280;63207;56.328;43.994;2022-11-24T04:55:22;100593.59;;;19.37;42.69
74678;BME280;63207;56.328;43.994;2022-11-24T04:57:48;100600.63;;;19.37;43.24
74678;BME280;63207;56.328;43.994;2022-11-24T05:00:14;100603.13;;;19.39;44.08
74678;BME280;63207;56.328;43.994;2022-11-24T05:02:40;100603.97;;;19.39;45.31
74678;BME280;63207;56.328;43.994;2022-11-24T05:05:06;100612.81;;;19.38;45.41
74678;BME280;63207;56.328;43.994;2022-11-24T05:07:32;100609.50;;;19.36;45.81
74678;BME280;63207;56.328;43.994;2022-11-24T05:09:58;100614.84;;;19.34;45.61
74678;BME280;63207;56.328;43.994;2022-11-24T05:12:42;100618.47;;;19.33;46.01
74678;BME280;63207;56.328;43.994;2022-11-24T05:15:09;100614.16;;;19.32;45.70
74678;BME280;63207;56.328;43.994;2022-11-24T05:17:37;100618.47;;;19.33;45.43
74678;BME280;63207;56.328;43.994;2022-11-24T05:20:05;100618.59;;;19.32;45.60
74678;BME280;63207;56.328;43.994;2022-11-24T05:22:31;100623.72;;;19.33;45.57
74678;BME280;63207;56.328;43.994;2022-11-24T05:24:57;100625.50;;;19.33;45.38
74678;BME280;63207;56.328;43.994;2022-11-24T05:27:23;100624.66;;;19.32;45.27
74678;BME280;63207;56.328;43.994;2022-11-24T05:29:49;100627.44;;;19.31;45.46
74678;BME280;63207;56.328;43.994;2022-11-24T05:32:15;100630.06;;;19.31;45.34
74678;BME280;63207;56.328;43.994;2022-11-24T05:34:40;100638.63;;;19.33;45.33
74678;BME280;63207;56.328;43.994;2022-11-24T05:37:06;100641.25;;;19.33;45.11
74678;BME280;63207;56.328;43.994;2022-11-24T05:39:34;100637.66;;;19.34;45.04
74678;BME280;63207;56.328;43.994;2022-11-24T05:42:01;100643.88;;;19.33;45.09
74678;BME280;63207;56.328;43.994;2022-11-24T05:45:12;100642.06;;;19.33;44.99
74678;BME280;63207;56.328;43.994;2022-11-24T05:47:40;100646.50;;;19.33;45.12
74678;BME280;63207;56.328;43.994;2022-11-24T05:50:24;100655.19;;;19.33;44.92
74678;BME280;63207;56.328;43.994;2022-11-24T05:52:50;100645.63;;;19.32;44.93
74678;BME280;63207;56.328;43.994;2022-11-24T05:55:16;100657.81;;;19.33;44.88
74678;BME280;63207;56.328;43.994;2022-11-24T05:57:44;100668.28;;;19.33;44.85
74678;BME280;63207;56.328;43.994;2022-11-24T06:00:10;100670.09;;;19.33;44.98
74678;BME280;63207;56.328;43.994;2022-11-24T06:02:39;100669.94;;;19.34;44.83
74678;BME280;63207;56.328;43.994;2022-11-24T06:05:05;100669.94;;;19.34;44.82
74678;BME280;63207;56.328;43.994;2022-11-24T06:07:31;100677.81;;;19.34;44.75
74678;BME280;63207;56.328;43.994;2022-11-24T06:09:57;100678.63;;;19.35;44.73
74678;BME280;63207;56.328;43.994;2022-11-24T06:12:22;100683.06;;;19.34;44.67
74678;BME280;63207;56.328;43.994;2022-11-24T06:14:48;100686.50;;;19.35;44.65
74678;BME280;63207;56.328;43.994;2022-11-24T06:17:14;100694.38;;;19.35;44.48
74678;BME280;63207;56.328;43.994;2022-11-24T06:19:40;100691.63;;;19.36;44.60
74678;BME280;63207;56.328;43.994;2022-11-24T06:22:06;100690.94;;;19.34;44.56
74678;BME280;63207;56.328;43.994;2022-11-24T06:24:32;100700.47;;;19.35;44.51
74678;BME280;63207;56.328;43.994;2022-11-24T06:26:57;100707.38;;;19.36;44.37
74678;BME280;63207;56.328;43.994;2022-11-24T06:29:42;100707.38;;;19.36;44.56
74678;BME280;63207;56.328;43.994;2022-11-24T06:32:08;100709.16;;;19.36;44.51
74678;BME280;63207;56.328;43.994;2022-11-24T06:34:34;100709.16;;;19.36;44.40
74678;BME280;63207;56.328;43.994;2022-11-24T06:37:00;100708.34;;;19.35;44.45
74678;BME280;63207;56.328;43.994;2022-11-24T06:39:26;100710.81;;;19.37;44.38
74678;BME280;63207;56.328;43.994;2022-11-24T06:41:52;100714.41;;;19.36;44.33
74678;BME280;63207;56.328;43.994;2022-11-24T06:44:18;100717.84;;;19.36;44.30
74678;BME280;63207;56.328;43.994;2022-11-24T06:46:44;100717.03;;;19.36;44.38
74678;BME280;63207;56.328;43.994;2022-11-24T06:49:10;100723.09;;;19.36;44.35
74678;BME280;63207;56.328;43.994;2022-11-24T06:51:36;100720.47;;;19.36;44.24
74678;BME280;63207;56.328;43.994;2022-11-24T06:54:05;100719.66;;;19.36;44.20
74678;BME280;63207;56.328;43.994;2022-11-24T06:56:31;100721.28;;;19.37;44.12
74678;BME280;63207;56.328;43.994;2022-11-24T06:58:57;100725.72;;;19.36;44.12
74678;BME280;63207;56.328;43.994;2022-11-24T07:01:25;100730.84;;;19.38;44.11
74678;BME280;63207;56.328;43.994;2022-11-24T07:03:52;100725.59;;;19.38;44.07
74678;BME280;63207;56.328;43.994;2022-11-24T07:06:19;100736.91;;;19.39;44.07
74678;BME280;63207;56.328;43.994;2022-11-24T07:08:46;100739.53;;;19.39;44.00
74678;BME280;63207;56.328;43.994;2022-11-24T07:11:14;100745.72;;;19.37;44.05
74678;BME280;63207;56.328;43.994;2022-11-24T07:13:41;100735.25;;;19.37;43.95
74678;BME280;63207;56.328;43.994;2022-11-24T07:16:27;100731.66;;;19.39;43.99
74678;BME280;63207;56.328;43.994;2022-11-24T07:18:54;100735.13;;;19.39;44.00
74678;BME280;63207;56.328;43.994;2022-11-24T07:21:21;100744.78;;;19.39;43.95
74678;BME280;63207;56.328;43.994;2022-11-24T07:23:48;100737.84;;;19.37;43.96
74678;BME280;63207;56.328;43.994;2022-11-24T07:26:33;100744.78;;;19.39;43.92
74678;BME280;63207;56.328;43.994;2022-11-24T07:29:03;100753.59;;;19.37;43.92
74678;BME280;63207;56.328;43.994;2022-11-24T07:31:30;100755.28;;;19.39;43.79
74678;BME280;63207;56.328;43.994;2022-11-24T07:33:56;100752.66;;;19.39;43.87
74678;BME280;63207;56.328;43.994;2022-11-24T07:36:22;100753.59;;;19.37;44.01
74678;BME280;63207;56.328;43.994;2022-11-24T07:38:49;100765.78;;;19.39;43.87
74678;BME280;63207;56.328;43.994;2022-11-24T07:41:16;100768.25;;;19.40;43.83
74678;BME280;63207;56.328;43.994;2022-11-24T07:43:44;100770.03;;;19.40;43.78
74678;BME280;63207;56.328;43.994;2022-11-24T07:46:28;100768.25;;;19.40;43.63
74678;BME280;63207;56.328;43.994;2022-11-24T07:48:54;100775.28;;;19.40;43.68
74678;BME280;63207;56.328;43.994;2022-11-24T07:51:19;100773.50;;;19.40;43.66
74678;BME280;63207;56.328;43.994;2022-11-24T07:53:45;100777.78;;;19.41;43.72
74678;BME280;63207;56.328;43.994;2022-11-24T07:56:11;100775.28;;;19.40;43.54
74678;BME280;63207;56.328;43.994;2022-11-24T07:58:37;100771.72;;;19.41;43.59
74678;BME280;63207;56.328;43.994;2022-11-24T08:01:14;100776.09;;;19.40;43.61
74678;BME280;63207;56.328;43.994;2022-11-24T08:03:41;100776.81;;;19.42;43.61
74678;BME280;63207;56.328;43.994;2022-11-24T08:06:08;100775.16;;;19.41;43.61
74678;BME280;63207;56.328;43.994;2022-11-24T08:08:34;100770.03;;;19.40;43.57
74678;BME280;63207;56.328;43.994;2022-11-24T08:11:04;100780.41;;;19.41;43.74
74678;BME280;63207;56.328;43.994;2022-11-24T08:13:30;100790.09;;;19.41;43.53
74678;BME280;63207;56.328;43.994;2022-11-24T08:16:03;100784.69;;;19.42;43.48
74678;BME280;63207;56.328;43.994;2022-11-24T08:18:30;100780.25;;;19.43;43.45
74678;BME280;63207;56.328;43.994;2022-11-24T08:20:59;100791.44;;;19.45;43.44
74678;BME280;63207;56.328;43.994;2022-11-24T08:23:25;100788.97;;;19.43;43.49
74678;BME280;63207;56.328;43.994;2022-11-24T08:25:51;100790.63;;;19.44;43.33
74678;BME280;63207;56.328;43.994;2022-11-24T08:28:19;100794.22;;;19.43;43.47
74678;BME280;63207;56.328;43.994;2022-11-24T08:30:45;100788.13;;;19.43;43.41
74678;BME280;63207;56.328;43.994;2022-11-24T08:33:13;100789.81;;;19.44;43.32
74678;BME280;63207;56.328;43.994;2022-11-24T08:35:38;100794.06;;;19.45;43.37
74678;BME280;63207;56.328;43.994;2022-11-24T08:38:05;100791.44;;;19.45;43.42
74678;BME280;63207;56.328;43.994;2022-11-24T08:40:31;100791.44;;;19.45;43.55
74678;BME280;63207;56.328;43.994;2022-11-24T08:42:58;100789.69;;;19.45;43.33
74678;BME280;63207;56.328;43.994;2022-11-24T08:45:25;100788.81;;;19.45;43.34
74678;BME280;63207;56.328;43.994;2022-11-24T08:47:52;100788.81;;;19.45;43.37
74678;BME280;63207;56.328;43.994;2022-11-24T08:50:20;100797.56;;;19.45;43.29
74678;BME280;63207;56.328;43.994;2022-11-24T08:52:45;100801.00;;;19.46;43.29
74678;BME280;63207;56.328;43.994;2022-11-24T08:55:11;100801.94;;;19.45;43.35
74678;BME280;63207;56.328;43.994;2022-11-24T08:57:38;100802.78;;;19.45;43.28
74678;BME280;63207;56.328;43.994;2022-11-24T09:00:05;100809.69;;;19.46;43.24
74678;BME280;63207;56.328;43.994;2022-11-24T09:02:31;100803.63;;;19.46;43.16
74678;BME280;63207;56.328;43.994;2022-11-24T09:04:57;100810.66;;;19.45;43.25
74678;BME280;63207;56.328;43.994;2022-11-24T09:07:23;100819.22;;;19.47;43.19
74678;BME280;63207;56.328;43.994;2022-11-24T09:09:49;100832.31;;;19.47;43.14
74678;BME280;63207;56.328;43.994;2022-11-24T09:12:14;100823.63;;;19.47;43.23
74678;BME280;63207;56.328;43.994;2022-11-24T09:14:59;100821.28;;;19.44;43.22
74678;BME280;63207;56.328;43.994;2022-11-24T09:17:25;100814.94;;;19.46;43.32
74678;BME280;63207;56.328;43.994;2022-11-24T09:19:51;100821.00;;;19.47;43.13
74678;BME280;63207;56.328;43.994;2022-11-24T09:22:16;100814.94;;;19.46;43.11
74678;BME280;63207;56.328;43.994;2022-11-24T09:24:43;100822.69;;;19.48;43.22
74678;BME280;63207;56.328;43.994;2022-11-24T09:27:09;100817.44;;;19.48;43.18
74678;BME280;63207;56.328;43.994;2022-11-24T09:29:35;100826.13;;;19.48;43.04
74678;BME280;63207;56.328;43.994;2022-11-24T09:32:01;100826.97;;;19.49;43.12
74678;BME280;63207;56.328;43.994;2022-11-24T09:34:26;100831.38;;;19.48;43.09
74678;BME280;63207;56.328;43.994;2022-11-24T09:36:52;100827.94;;;19.48;43.08
74678;BME280;63207;56.328;43.994;2022-11-24T09:39:18;100832.22;;;19.49;43.13
74678;BME280;63207;56.328;43.994;2022-11-24T09:41:56;100834.72;;;19.50;43.08
74678;BME280;63207;56.328;43.994;2022-11-24T09:44:47;100829.47;;;19.50;43.22
74678;BME280;63207;56.328;43.994;2022-11-24T09:50:13;100826.84;;;19.50;42.78
74678;BME280;63207;56.328;43.994;2022-11-24T09:55:39;100826.97;;;19.49;43.05
74678;BME280;63207;56.328;43.994;2022-11-24T10:00:55;100829.59;;;19.49;42.98
74678;BME280;63207;56.328;43.994;2022-11-24T10:03:29;100838.16;;;19.51;42.92
74678;BME280;63207;56.328;43.994;2022-11-24T10:05:57;100835.66;;;19.49;43.05
74678;BME280;63207;56.328;43.994;2022-11-24T10:11:37;100844.50;;;19.48;43.01
74678;BME280;63207;56.328;43.994;2022-11-24T10:14:34;100854.00;;;19.49;42.90
74678;BME280;63207;56.328;43.994;2022-11-24T10:20:02;100858.31;;;19.50;42.83
74678;BME280;63207;56.328;43.994;2022-11-24T10:27:58;100861.88;;;19.49;42.95
74678;BME280;63207;56.328;43.994;2022-11-24T10:30:25;100869.91;;;19.48;42.87
74678;BME280;63207;56.328;43.994;2022-11-24T10:32:56;100872.38;;;19.49;42.80
74678;BME280;63207;56.328;43.994;2022-11-24T10:35:39;100862.88;;;19.48;42.70
74678;BME280;63207;56.328;43.994;2022-11-24T10:40:45;100866.31;;;19.49;42.84
74678;BME280;63207;56.328;43.994;2022-11-24T10:43:12;100867.13;;;19.49;42.85
74678;BME280;63207;56.328;43.994;2022-11-24T10:45:39;100871.56;;;19.49;42.87
74678;BME280;63207;56.328;43.994;2022-11-24T10:48:17;100881.22;;;19.48;42.79
74678;BME280;63207;56.328;43.994;2022-11-24T10:50:44;100883.69;;;19.50;42.62
74678;BME280;63207;56.328;43.994;2022-11-24T10:53:28;100876.81;;;19.49;42.71
74678;BME280;63207;56.328;43.994;2022-11-24T10:58:23;100875.97;;;19.48;42.90
74678;BME280;63207;56.328;43.994;2022-11-24T11:00:50;100884.69;;;19.49;42.81
74678;BME280;63207;56.328;43.994;2022-11-24T11:03:22;100890.75;;;19.49;42.70
74678;BME280;63207;56.328;43.994;2022-11-24T11:06:15;100891.72;;;19.48;42.77
74678;BME280;63207;56.328;43.994;2022-11-24T11:08:45;100889.22;;;19.47;42.79
74678;BME280;63207;56.328;43.994;2022-11-24T11:11:20;100887.31;;;19.49;42.74
74678;BME280;63207;56.328;43.994;2022-11-24T11:13:47;100884.69;;;19.49;42.76
74678;BME280;63207;56.328;43.994;2022-11-24T11:16:43;100893.53;;;19.48;42.60
74678;BME280;63207;56.328;43.994;2022-11-24T11:19:42;100906.66;;;19.48;42.69
74678;BME280;63207;56.328;43.994;2022-11-24T11:24:35;100904.03;;;19.48;42.72
74678;BME280;63207;56.328;43.994;2022-11-24T11:27:04;100910.22;;;19.47;42.82
74678;BME280;63207;56.328;43.994;2022-11-24T11:29:30;100911.88;;;19.48;42.82
74678;BME280;63207;56.328;43.994;2022-11-24T11:32:17;100915.34;;;19.48;42.84
74678;BME280;63207;56.328;43.994;2022-11-24T11:35:02;100917.13;;;19.48;42.67
74678;BME280;63207;56.328;43.994;2022-11-24T11:37:31;100906.66;;;19.48;42.68
74678;BME280;63207;56.328;43.994;2022-11-24T11:39:57;100909.28;;;19.48;42.78
74678;BME280;63207;56.328;43.994;2022-11-24T11:47:50;100911.75;;;19.49;42.65
74678;BME280;63207;56.328;43.994;2022-11-24T11:54:39;100919.59;;;19.49;42.81
74678;BME280;63207;56.328;43.994;2022-11-24T11:56:30;100918.09;;;19.47;42.70
74678;BME280;63207;56.328;43.994;2022-11-24T12:02:37;100930.25;;;19.48;42.71
74678;BME280;63207;56.328;43.994;2022-11-24T12:05:22;100931.19;;;19.47;42.49
74678;BME280;63207;56.328;43.994;2022-11-24T12:08:01;100935.50;;;19.48;42.64
74678;BME280;63207;56.328;43.994;2022-11-24T12:10:38;100932.03;;;19.47;42.64
74678;BME280;63207;56.328;43.994;2022-11-24T12:15:57;100931.19;;;19.47;42.59
74678;BME280;63207;56.328;43.994;2022-11-24T12:21:17;100946.00;;;19.48;42.73
74678;BME280;63207;56.328;43.994;2022-11-24T12:43:38;100945.16;;;19.47;42.59
74678;BME280;63207;56.328;43.994;2022-11-24T12:46:16;100945.84;;;19.49;42.62
74678;BME280;63207;56.328;43.994;2022-11-24T12:52:22;100946.94;;;19.47;42.55
74678;BME280;63207;56.328;43.994;2022-11-24T12:54:50;100953.00;;;19.47;42.53
74678;BME280;63207;56.328;43.994;2022-11-24T12:57:28;100946.94;;;19.47;42.52
74678;BME280;63207;56.328;43.994;2022-11-24T13:00:22;100952.06;;;19.48;42.58
74678;BME280;63207;56.328;43.994;2022-11-24T13:03:28;100959.94;;;19.48;42.43
74678;BME280;63207;56.328;43.994;2022-11-24T13:08:35;100963.50;;;19.47;42.41
74678;BME280;63207;56.328;43.994;2022-11-24T13:11:25;100966.84;;;19.49;42.47
74678;BME280;63207;56.328;43.994;2022-11-24T13:14:14;100965.19;;;19.48;42.32
74678;BME280;63207;56.328;43.994;2022-11-24T13:17:02;100967.81;;;19.48;42.39
74678;BME280;63207;56.328;43.994;2022-11-24T13:19:33;100970.28;;;19.50;42.56
74678;BME280;63207;56.328;43.994;2022-11-24T13:24:36;100971.16;;;19.50;42.42
74678;BME280;63207;56.328;43.994;2022-11-24T13:29:45;100979.00;;;19.50;42.49
74678;BME280;63207;56.328;43.994;2022-11-24T13:39:54;100985.91;;;19.51;42.41
74678;BME280;63207;56.328;43.994;2022-11-24T13:42:24;100986.72;;;19.52;42.47
74678;BME280;63207;56.328;43.994;2022-11-24T13:44:56;100980.53;;;19.53;42.45
74678;BME280;63207;56.328;43.994;2022-11-24T13:50:05;100987.44;;;19.54;42.40
74678;BME280;63207;56.328;43.994;2022-11-24T13:55:23;100998.91;;;19.53;42.45
74678;BME280;63207;56.328;43.994;2022-11-24T13:57:53;101004.16;;;19.53;42.39
74678;BME280;63207;56.328;43.994;2022-11-24T14:00:33;101003.19;;;19.54;42.54
74678;BME280;63207;56.328;43.994;2022-11-24T14:03:03;101007.47;;;19.55;42.37
74678;BME280;63207;56.328;43.994;2022-11-24T14:05:35;101005.81;;;19.54;42.36
74678;BME280;63207;56.328;43.994;2022-11-24T14:08:04;101008.44;;;19.54;42.47
74678;BME280;63207;56.328;43.994;2022-11-24T14:10:39;101007.47;;;19.55;42.33
74678;BME280;63207;56.328;43.994;2022-11-24T14:13:32;101013.56;;;19.55;42.39
74678;BME280;63207;56.328;43.994;2022-11-24T14:16:14;101013.56;;;19.55;42.39
74678;BME280;63207;56.328;43.994;2022-11-24T14:18:45;101011.88;;;19.54;42.34
74678;BME280;63207;56.328;43.994;2022-11-24T14:21:33;101008.44;;;19.54;42.36
74678;BME280;63207;56.328;43.994;2022-11-24T14:24:10;101012.72;;;19.55;42.24
74678;BME280;63207;56.328;43.994;2022-11-24T14:26:38;101023.19;;;19.55;42.42
74678;BME280;63207;56.328;43.994;2022-11-24T14:29:16;101024.06;;;19.55;42.35
74678;BME280;63207;56.328;43.994;2022-11-24T14:32:12;101025.81;;;19.55;42.39